Time;durP1;ratioP1;P1;durP2;ratioP2;P2;SDS_P1;SDS_P2;PMS_P1;PMS_P2;Temp;Humidity;BMP_temperature;BMP_pressure;BME280_temperature;BME280_humidity;BME280_pressure;Samples;Min_cycle;Max_cycle;Signal;HPM_P1;HPM_P2
2021/07/24 00:01:28;;;;;;;0.40;0.20;;;16.60;99.90;;;;;;4958537;29;20491;-67
2021/07/24 00:03:53;;;;;;;0.70;0.70;;;16.60;99.90;;;;;;4958166;29;20491;-67
2021/07/24 00:06:19;;;;;;;0.40;0.20;;;16.40;99.90;;;;;;4958432;29;20279;-67
2021/07/24 00:08:44;;;;;;;0.40;0.20;;;16.30;99.90;;;;;;4941056;29;20180;-67
2021/07/24 00:11:10;;;;;;;0.40;0.20;;;16.30;99.90;;;;;;4958242;29;20184;-67
2021/07/24 00:13:38;;;;;;;0.40;0.20;;;16.40;99.90;;;;;;4941329;29;20176;-68
2021/07/24 00:16:04;;;;;;;0.40;0.20;;;16.50;99.90;;;;;;4941319;29;20442;-65
2021/07/24 00:18:31;;;;;;;0.40;0.20;;;16.50;99.90;;;;;;4958242;29;20644;-66
2021/07/24 00:20:57;;;;;;;0.40;0.20;;;16.60;99.90;;;;;;4958237;29;20188;-67
2021/07/24 00:23:23;;;;;;;0.40;0.20;;;16.30;99.90;;;;;;4958141;29;20191;-67
2021/07/24 00:25:48;;;;;;;0.40;0.20;;;16.30;99.90;;;;;;4958270;29;20478;-66
2021/07/24 00:28:14;;;;;;;0.40;0.17;;;16.40;99.90;;;;;;4957884;29;20190;-66
2021/07/24 00:30:43;;;;;;;0.40;0.20;;;16.40;99.90;;;;;;4958026;29;20207;-67
2021/07/24 00:33:08;;;;;;;0.40;0.20;;;16.50;99.90;;;;;;4957593;28;20172;-66
2021/07/24 00:35:34;;;;;;;0.40;0.20;;;16.50;99.90;;;;;;4958060;29;20522;-64
2021/07/24 00:38:01;;;;;;;0.40;0.20;;;16.20;99.90;;;;;;4957811;29;20443;-66
2021/07/24 00:40:29;;;;;;;0.40;0.20;;;16.20;99.90;;;;;;4957504;29;20254;-67
2021/07/24 00:42:57;;;;;;;0.40;0.20;;;16.30;99.90;;;;;;4957886;29;20244;-67
2021/07/24 00:45:25;;;;;;;0.40;0.20;;;16.30;99.90;;;;;;4957698;29;20602;-65
2021/07/24 00:47:54;;;;;;;0.40;0.20;;;16.20;99.90;;;;;;4957606;29;20208;-66
2021/07/24 00:50:20;;;;;;;0.40;0.20;;;16.30;99.90;;;;;;4957553;29;20190;-65
2021/07/24 00:52:46;;;;;;;0.40;0.20;;;16.40;99.90;;;;;;4957525;29;20585;-65
2021/07/24 00:55:13;;;;;;;0.40;0.20;;;16.30;99.90;;;;;;4957406;29;20432;-65
2021/07/24 00:57:41;;;;;;;0.40;0.20;;;16.30;99.90;;;;;;4957490;29;20180;-64
2021/07/24 01:00:09;;;;;;;0.40;0.20;;;16.30;99.90;;;;;;4957265;29;20216;-64
2021/07/24 01:02:35;;;;;;;0.40;0.20;;;16.30;99.90;;;;;;4957354;29;20292;-64
2021/07/24 01:05:02;;;;;;;0.40;0.20;;;16.30;99.90;;;;;;4957161;29;20247;-63
2021/07/24 01:07:29;;;;;;;0.40;0.20;;;16.20;99.90;;;;;;4957203;29;20688;-63
2021/07/24 01:09:57;;;;;;;0.40;0.20;;;16.20;99.90;;;;;;4957141;29;20602;-63
2021/07/24 01:12:23;;;;;;;0.40;0.20;;;16.30;99.90;;;;;;4957306;29;20734;-66
2021/07/24 01:14:50;;;;;;;0.40;0.20;;;16.20;99.90;;;;;;4957262;29;20236;-66
2021/07/24 01:17:15;;;;;;;0.68;0.63;;;16.10;99.90;;;;;;4957099;29;20439;-66
2021/07/24 01:19:41;;;;;;;0.40;0.20;;;16.10;99.90;;;;;;4957032;29;20184;-66
2021/07/24 01:22:07;;;;;;;0.40;0.17;;;16.20;99.90;;;;;;4957047;29;20263;-66
2021/07/24 01:24:32;;;;;;;0.40;0.20;;;16.10;99.90;;;;;;4957007;29;20231;-63
2021/07/24 01:26:58;;;;;;;0.40;0.20;;;16.10;99.90;;;;;;4957108;29;20614;-64
2021/07/24 01:29:24;;;;;;;0.40;0.20;;;16.10;99.90;;;;;;4957167;29;20424;-63
2021/07/24 01:31:49;;;;;;;0.40;0.20;;;16.00;99.90;;;;;;4956815;29;20180;-64
2021/07/24 01:34:15;;;;;;;0.50;0.40;;;16.00;99.90;;;;;;4956912;29;20194;-65
2021/07/24 01:36:41;;;;;;;0.40;0.20;;;15.90;99.90;;;;;;4956577;29;20582;-65
2021/07/24 01:39:08;;;;;;;0.40;0.20;;;16.10;99.90;;;;;;4956565;29;20628;-64
2021/07/24 01:41:34;;;;;;;0.40;0.20;;;16.10;99.90;;;;;;4939840;29;20195;-68
2021/07/24 01:44:00;;;;;;;0.40;0.20;;;16.10;99.90;;;;;;4955719;28;20176;-66
2021/07/24 01:46:25;;;;;;;0.40;0.20;;;16.10;99.90;;;;;;4956630;29;20181;-66
2021/07/24 01:49:04;;;;;;;0.40;0.20;;;15.90;99.90;;;;;;4956423;29;20615;-64
2021/07/24 01:54:56;;;;;;;0.40;0.20;;;15.50;99.90;;;;;;4956649;29;20269;-66
2021/07/24 01:57:23;;;;;;;0.50;0.47;;;15.50;99.90;;;;;;4936016;29;20191;-66
2021/07/24 01:59:54;;;;;;;0.40;0.20;;;15.60;99.90;;;;;;4956112;29;20192;-66
2021/07/24 02:02:20;;;;;;;0.40;0.20;;;15.70;99.90;;;;;;4956272;29;20184;-66
2021/07/24 02:04:49;;;;;;;0.40;0.20;;;15.70;99.90;;;;;;4956035;29;20203;-66
2021/07/24 02:07:17;;;;;;;0.40;0.20;;;15.70;99.90;;;;;;4956028;29;20185;-66
2021/07/24 02:09:43;;;;;;;0.40;0.20;;;15.80;99.90;;;;;;4956513;29;20183;-66
2021/07/24 02:12:09;;;;;;;0.40;0.20;;;15.60;99.90;;;;;;4956352;29;20212;-66
2021/07/24 02:14:35;;;;;;;0.40;0.20;;;15.60;99.90;;;;;;4939112;29;20188;-66
2021/07/24 02:17:01;;;;;;;0.40;0.20;;;15.60;99.90;;;;;;4955985;29;20191;-66
2021/07/24 02:19:31;;;;;;;0.40;0.20;;;15.70;99.90;;;;;;4958237;29;20275;-68
2021/07/24 02:21:57;;;;;;;0.40;0.20;;;15.70;99.90;;;;;;4957847;29;20219;-67
2021/07/24 02:24:22;;;;;;;0.40;0.20;;;15.60;99.90;;;;;;4956884;29;20298;-68
2021/07/24 02:26:48;;;;;;;0.40;0.20;;;15.60;99.90;;;;;;4956512;29;20267;-66
2021/07/24 02:29:13;;;;;;;0.40;0.20;;;15.50;99.90;;;;;;4956910;29;20236;-67
2021/07/24 02:31:39;;;;;;;0.40;0.20;;;15.50;99.90;;;;;;4956415;29;20326;-66
2021/07/24 02:34:04;;;;;;;0.40;0.20;;;15.50;99.90;;;;;;4956051;29;20271;-66
2021/07/24 02:36:30;;;;;;;0.40;0.20;;;15.60;99.90;;;;;;4938856;29;20195;-65
2021/07/24 02:38:56;;;;;;;0.40;0.20;;;15.80;99.90;;;;;;4938577;29;20204;-64
2021/07/24 02:41:21;;;;;;;0.40;0.20;;;15.70;99.90;;;;;;4955816;29;20254;-65
2021/07/24 02:43:47;;;;;;;0.40;0.20;;;15.70;99.90;;;;;;4955745;29;20172;-64
2021/07/24 02:46:19;;;;;;;0.40;0.20;;;15.60;99.90;;;;;;4955836;29;20224;-64
2021/07/24 02:48:46;;;;;;;0.40;0.20;;;15.70;99.90;;;;;;4955757;29;20172;-66
2021/07/24 02:51:15;;;;;;;0.40;0.20;;;15.70;99.90;;;;;;4955905;29;20187;-66
2021/07/24 02:53:41;;;;;;;0.40;0.20;;;15.60;99.90;;;;;;4956167;29;20188;-64
2021/07/24 02:56:07;;;;;;;0.40;0.20;;;15.60;99.90;;;;;;4955794;29;20185;-64
2021/07/24 02:58:33;;;;;;;0.40;0.30;;;15.60;99.90;;;;;;4956178;29;20491;-67
2021/07/24 03:01:04;;;;;;;0.40;0.20;;;15.50;99.90;;;;;;4956023;29;20846;-64
2021/07/24 03:03:30;;;;;;;0.38;0.20;;;15.50;99.90;;;;;;4956242;29;20188;-64
2021/07/24 03:05:58;;;;;;;0.40;0.20;;;15.50;99.90;;;;;;4956831;29;20290;-64
2021/07/24 03:08:27;;;;;;;0.40;0.20;;;15.40;99.90;;;;;;4957113;29;20474;-66
2021/07/24 03:10:53;;;;;;;0.40;0.20;;;15.40;99.90;;;;;;4957552;29;20263;-66
2021/07/24 03:13:18;;;;;;;0.40;0.20;;;15.50;99.90;;;;;;4957529;29;20215;-66
2021/07/24 03:15:48;;;;;;;0.40;0.20;;;15.40;99.90;;;;;;4957488;29;20281;-65
2021/07/24 03:18:19;;;;;;;0.40;0.20;;;15.40;99.90;;;;;;4957107;29;20216;-64
2021/07/24 03:20:45;;;;;;;0.40;0.20;;;15.40;99.90;;;;;;4956612;29;20192;-64
2021/07/24 03:23:11;;;;;;;0.40;0.20;;;15.40;99.90;;;;;;4939329;29;20191;-64
2021/07/24 03:25:41;;;;;;;0.33;0.10;;;15.50;99.90;;;;;;4956683;29;20216;-64
2021/07/24 03:28:07;;;;;;;0.40;0.20;;;15.50;99.90;;;;;;4956459;29;20172;-64
2021/07/24 03:30:33;;;;;;;0.30;0.17;;;15.50;99.90;;;;;;4956765;29;20184;-64
2021/07/24 03:32:59;;;;;;;0.40;0.20;;;15.50;99.90;;;;;;4956192;29;20439;-64
2021/07/24 03:35:24;;;;;;;0.40;0.20;;;15.50;99.90;;;;;;4955958;29;20201;-64
2021/07/24 03:37:50;;;;;;;0.30;0.20;;;15.50;99.90;;;;;;4956132;29;20184;-64
2021/07/24 03:40:15;;;;;;;0.40;0.20;;;15.50;99.90;;;;;;4956017;28;20183;-64
2021/07/24 03:42:41;;;;;;;0.40;0.20;;;15.60;99.90;;;;;;4955709;29;20681;-64
2021/07/24 03:45:07;;;;;;;0.40;0.20;;;15.60;99.90;;;;;;4955609;29;20207;-64
2021/07/24 03:47:36;;;;;;;0.40;0.20;;;15.60;99.90;;;;;;4955414;29;20420;-64
2021/07/24 03:50:01;;;;;;;0.40;0.20;;;15.70;99.90;;;;;;4955285;29;20487;-64
2021/07/24 03:52:27;;;;;;;0.40;0.20;;;15.60;99.90;;;;;;4955365;29;20185;-64
2021/07/24 03:54:52;;;;;;;0.40;0.20;;;15.70;99.90;;;;;;4955287;29;20188;-64
2021/07/24 03:57:18;;;;;;;0.40;0.20;;;15.80;99.90;;;;;;4954992;29;20188;-64
2021/07/24 03:59:44;;;;;;;0.40;0.20;;;15.80;99.90;;;;;;4954941;29;20192;-64
2021/07/24 04:02:12;;;;;;;0.30;0.17;;;15.90;99.90;;;;;;4955112;29;20271;-64
2021/07/24 04:04:39;;;;;;;0.40;0.10;;;16.00;99.90;;;;;;4954801;29;20223;-64
2021/07/24 04:07:05;;;;;;;0.40;0.20;;;16.20;99.90;;;;;;4956024;28;20703;-64
2021/07/24 04:09:32;;;;;;;0.40;0.20;;;16.40;99.90;;;;;;4958413;29;20259;-64
2021/07/24 04:11:58;;;;;;;0.40;0.20;;;17.10;99.90;;;;;;4958517;29;20849;-64
2021/07/24 04:14:26;;;;;;;0.40;0.20;;;17.40;99.90;;;;;;4958202;29;20190;-64
2021/07/24 04:16:54;;;;;;;0.40;0.20;;;17.50;99.90;;;;;;4958259;29;20580;-64
2021/07/24 04:19:20;;;;;;;0.40;0.20;;;17.60;99.90;;;;;;4958170;29;20184;-64
2021/07/24 04:21:45;;;;;;;0.40;0.20;;;18.30;99.90;;;;;;4958333;29;20636;-65
2021/07/24 04:24:12;;;;;;;0.40;0.20;;;19.30;99.90;;;;;;4958082;29;20206;-64
2021/07/24 04:26:38;;;;;;;0.40;0.20;;;20.40;97.00;;;;;;4958172;29;20179;-64
2021/07/24 04:29:08;;;;;;;0.40;0.20;;;21.20;1.00;;;;;;4940906;29;20427;-64
2021/07/24 04:31:34;;;;;;;0.40;0.20;;;21.90;1.00;;;;;;4941046;29;20204;-64
2021/07/24 04:33:59;;;;;;;0.40;0.20;;;22.00;99.90;;;;;;4957889;29;20759;-64
2021/07/24 04:36:25;;;;;;;0.50;0.20;;;22.20;99.90;;;;;;4957889;29;20263;-65
2021/07/24 04:38:50;;;;;;;2.00;1.20;;;22.70;1.00;;;;;;4957966;29;20609;-65
2021/07/24 04:41:17;;;;;;;0.40;0.20;;;23.00;1.00;;;;;;4957898;29;20176;-65
2021/07/24 04:43:44;;;;;;;0.40;0.10;;;23.30;1.00;;;;;;4957733;29;20176;-64
2021/07/24 04:46:10;;;;;;;0.40;0.10;;;24.20;1.00;;;;;;4957534;29;20473;-65
2021/07/24 04:48:36;;;;;;;0.40;0.20;;;24.70;99.90;;;;;;4957586;29;20515;-65
2021/07/24 04:51:02;;;;;;;0.40;0.20;;;25.50;99.90;;;;;;4957923;29;20447;-64
2021/07/24 04:53:27;;;;;;;0.40;0.20;;;25.90;47.00;;;;;;4957291;29;20176;-64
2021/07/24 04:55:53;;;;;;;0.40;0.20;;;26.20;8.50;;;;;;4957619;29;20901;-66
2021/07/24 04:58:21;;;;;;;0.40;0.20;;;26.30;1.00;;;;;;4957299;29;20184;-64
2021/07/24 05:00:47;;;;;;;0.40;0.20;;;26.60;1.00;;;;;;4957704;29;20431;-64
2021/07/24 05:03:14;;;;;;;0.50;0.20;;;27.10;1.00;;;;;;4956935;29;20468;-64
2021/07/24 05:05:41;;;;;;;0.40;0.20;;;27.60;1.00;;;;;;4957144;29;20676;-64
2021/07/24 05:08:10;;;;;;;0.40;0.20;;;27.30;1.00;;;;;;4957405;29;20573;-64
2021/07/24 05:10:47;;;;;;;0.40;0.10;;;27.70;1.00;;;;;;4958014;29;20478;-65
2021/07/24 05:13:15;;;;;;;1.70;1.60;;;28.20;1.00;;;;;;4957658;29;20459;-64
2021/07/24 05:15:41;;;;;;;1.83;1.73;;;28.40;1.00;;;;;;4957305;29;20495;-64
2021/07/24 05:18:07;;;;;;;0.40;0.20;;;28.50;1.00;;;;;;4956976;28;20428;-64
2021/07/24 05:20:33;;;;;;;0.40;0.20;;;28.30;1.00;;;;;;4957327;29;20184;-64
2021/07/24 05:22:59;;;;;;;1.63;0.40;;;28.00;1.00;;;;;;4957239;29;20227;-64
2021/07/24 05:25:25;;;;;;;0.50;0.20;;;27.90;1.00;;;;;;4956920;29;20507;-65
2021/07/24 05:27:50;;;;;;;0.40;0.20;;;28.50;1.00;;;;;;4956931;29;20189;-65
2021/07/24 05:30:16;;;;;;;0.40;0.20;;;28.90;1.00;;;;;;4956989;29;20192;-65
2021/07/24 05:32:42;;;;;;;0.50;0.30;;;29.50;1.00;;;;;;4956805;29;20184;-65
2021/07/24 05:35:08;;;;;;;0.40;0.20;;;29.90;1.00;;;;;;4956932;29;20470;-64
2021/07/24 05:37:34;;;;;;;0.50;0.20;;;30.00;1.00;;;;;;4956691;29;20251;-64
2021/07/24 05:39:59;;;;;;;0.50;0.20;;;30.60;1.00;;;;;;4956823;29;20881;-64
2021/07/24 05:42:25;;;;;;;0.50;0.20;;;31.20;1.00;;;;;;4956807;29;20176;-64
2021/07/24 05:44:50;;;;;;;0.50;0.20;;;31.70;1.00;;;;;;4956597;29;20287;-64
2021/07/24 05:47:16;;;;;;;0.50;0.20;;;30.80;1.00;;;;;;4957056;29;20188;-68
2021/07/24 05:49:41;;;;;;;0.50;0.33;;;29.70;1.00;;;;;;4957129;29;20184;-68
2021/07/24 05:52:11;;;;;;;0.40;0.20;;;30.70;1.00;;;;;;4939745;29;20199;-68
2021/07/24 05:54:37;;;;;;;1.90;1.80;;;31.30;1.00;;;;;;4939626;29;20184;-68
2021/07/24 05:57:07;;;;;;;0.40;0.20;;;31.80;1.00;;;;;;4956364;29;20428;-68
2021/07/24 05:59:34;;;;;;;0.50;0.20;;;29.90;1.00;;;;;;4956735;29;20432;-65
2021/07/24 06:02:01;;;;;;;0.50;0.20;;;29.10;1.00;;;;;;4956348;29;20447;-66
2021/07/24 06:04:26;;;;;;;0.50;0.10;;;28.30;1.00;;;;;;4955950;29;20997;-66
2021/07/24 06:06:52;;;;;;;0.50;0.20;;;28.60;1.00;;;;;;4956152;29;20538;-68
2021/07/24 06:09:18;;;;;;;2.23;2.03;;;29.50;1.00;;;;;;4957391;29;20176;-68
2021/07/24 06:11:43;;;;;;;0.50;0.33;;;31.00;1.00;;;;;;4939245;29;20610;-66
2021/07/24 06:14:09;;;;;;;0.50;0.20;;;30.70;1.00;;;;;;4956782;29;20195;-67
2021/07/24 06:16:36;;;;;;;0.50;0.20;;;31.30;1.00;;;;;;4956836;29;20195;-65
2021/07/24 06:19:02;;;;;;;0.50;0.20;;;30.20;1.00;;;;;;4955865;29;20609;-65
2021/07/24 06:21:28;;;;;;;0.50;0.30;;;31.10;1.00;;;;;;4955993;29;20423;-65
2021/07/24 06:23:53;;;;;;;0.70;0.20;;;31.50;1.00;;;;;;4955930;28;20195;-65
2021/07/24 06:26:19;;;;;;;0.57;0.43;;;31.10;1.00;;;;;;4955895;29;20216;-65
2021/07/24 06:28:45;;;;;;;1.13;1.03;;;30.80;1.00;;;;;;4955651;29;20544;-65
2021/07/24 06:31:10;;;;;;;0.50;0.20;;;29.80;1.00;;;;;;4955214;28;20180;-65
2021/07/24 06:33:36;;;;;;;0.50;0.20;;;28.90;1.00;;;;;;4955643;29;20184;-64
2021/07/24 06:36:01;;;;;;;0.50;0.20;;;30.10;1.00;;;;;;4955681;29;20216;-64
2021/07/24 06:38:28;;;;;;;0.67;0.40;;;31.40;1.00;;;;;;4955424;29;20195;-64
2021/07/24 06:40:54;;;;;;;0.50;0.30;;;31.30;1.00;;;;;;4955579;29;20184;-64
2021/07/24 06:43:19;;;;;;;0.50;0.30;;;31.70;1.00;;;;;;4955595;29;20637;-64
2021/07/24 06:45:45;;;;;;;0.60;0.40;;;30.80;1.00;;;;;;4955461;29;20570;-66
2021/07/24 06:48:11;;;;;;;0.60;0.30;;;30.70;1.00;;;;;;4955454;29;20243;-67
2021/07/24 06:50:39;;;;;;;0.50;0.30;;;29.40;1.00;;;;;;4955572;29;20259;-65
2021/07/24 06:53:05;;;;;;;0.50;0.20;;;30.50;1.00;;;;;;4956176;29;20212;-67
2021/07/24 06:55:30;;;;;;;0.50;0.20;;;32.60;1.00;;;;;;4938753;29;20478;-64
2021/07/24 06:58:01;;;;;;;0.50;0.20;;;32.00;1.00;;;;;;4955563;29;20255;-64
2021/07/24 07:00:27;;;;;;;0.50;0.20;;;31.10;1.00;;;;;;4955456;29;20187;-64
2021/07/24 07:03:00;;;;;;;0.70;0.40;;;29.70;1.00;;;;;;4938748;29;20783;-64
2021/07/24 07:05:26;;;;;;;0.60;0.50;;;29.30;1.00;;;;;;4955517;29;20546;-64
2021/07/24 07:07:53;;;;;;;0.50;0.20;;;29.80;1.00;;;;;;4955458;29;20428;-64
2021/07/24 07:10:19;;;;;;;1.40;0.70;;;30.50;1.00;;;;;;4955094;29;20511;-64
2021/07/24 07:12:44;;;;;;;4.93;2.50;;;29.90;1.00;;;;;;4955942;29;20502;-64
2021/07/24 07:15:10;;;;;;;0.97;0.80;;;29.70;1.00;;;;;;4955544;29;20443;-64
2021/07/24 07:17:36;;;;;;;0.50;0.20;;;31.00;1.00;;;;;;4938515;29;20199;-64
2021/07/24 07:20:05;;;;;;;0.70;0.30;;;31.40;1.00;;;;;;4955705;29;20478;-64
2021/07/24 07:22:31;;;;;;;0.50;0.30;;;32.10;1.00;;;;;;4955265;29;20243;-66
2021/07/24 07:24:56;;;;;;;1.20;0.50;;;30.50;1.00;;;;;;4955619;29;20557;-64
2021/07/24 07:27:22;;;;;;;0.80;0.63;;;30.00;1.00;;;;;;4955452;29;20176;-64
2021/07/24 07:29:47;;;;;;;0.50;0.20;;;29.50;1.00;;;;;;4955260;29;20180;-64
2021/07/24 07:32:14;;;;;;;0.50;0.20;;;27.50;1.00;;;;;;4955600;28;20602;-64
2021/07/24 07:34:40;;;;;;;0.97;0.77;;;28.90;1.00;;;;;;4955623;29;20272;-64
2021/07/24 07:37:06;;;;;;;0.50;0.20;;;29.40;1.00;;;;;;4955459;29;20436;-63
2021/07/24 07:39:32;;;;;;;0.50;0.30;;;28.40;1.00;;;;;;4955453;29;20440;-67
2021/07/24 07:41:57;;;;;;;0.50;0.20;;;27.80;1.00;;;;;;4956337;28;20543;-67
2021/07/24 07:44:24;;;;;;;1.33;1.13;;;27.90;1.00;;;;;;4958829;29;20192;-65
2021/07/24 07:46:50;;;;;;;0.50;0.30;;;25.80;1.00;;;;;;4958897;29;20188;-65
2021/07/24 07:49:16;;;;;;;0.70;0.30;;;24.10;1.00;;;;;;4958656;29;20442;-69
2021/07/24 07:51:41;;;;;;;0.50;0.20;;;23.30;99.90;;;;;;4938835;29;20448;-67
2021/07/24 07:54:07;;;;;;;0.70;0.50;;;22.80;1.00;;;;;;4965144;28;20546;-71
2021/07/24 07:56:33;;;;;;;0.50;0.20;;;23.10;1.00;;;;;;4962985;28;20175;-70
2021/07/24 07:58:58;;;;;;;2.30;0.97;;;23.50;1.00;;;;;;4977220;28;20188;-69
2021/07/24 08:01:24;;;;;;;1.20;0.50;;;23.80;1.00;;;;;;4967363;28;20604;-69
2021/07/24 08:03:49;;;;;;;0.90;0.73;;;23.30;1.00;;;;;;4957553;29;20628;-69
2021/07/24 08:06:15;;;;;;;0.40;0.20;;;22.90;20.70;;;;;;4957869;29;20453;-69
2021/07/24 08:08:41;;;;;;;0.50;0.20;;;22.40;1.00;;;;;;4957582;29;20177;-69
2021/07/24 08:11:06;;;;;;;0.57;0.20;;;22.20;85.70;;;;;;4976881;28;20431;-69
2021/07/24 08:13:32;;;;;;;1.73;0.63;;;22.60;1.00;;;;;;4977510;28;20238;-69
2021/07/24 08:15:58;;;;;;;0.60;0.40;;;22.00;99.90;;;;;;4977604;28;20209;-70
2021/07/24 08:18:23;;;;;;;0.50;0.30;;;22.00;1.00;;;;;;4977424;28;20195;-69
2021/07/24 08:20:49;;;;;;;2.03;0.73;;;22.40;99.90;;;;;;4977535;28;20263;-68
2021/07/24 08:23:15;;;;;;;1.70;1.27;;;22.70;99.90;;;;;;4977669;28;20555;-67
2021/07/24 08:25:42;;;;;;;0.60;0.40;;;22.40;1.00;;;;;;4977341;28;20525;-67
2021/07/24 08:28:07;;;;;;;0.90;0.90;;;22.40;1.00;;;;;;4958399;28;20224;-67
2021/07/24 08:30:33;;;;;;;1.60;1.30;;;22.90;1.00;;;;;;4958366;29;20816;-67
2021/07/24 08:32:59;;;;;;;0.50;0.10;;;22.90;1.00;;;;;;4958175;28;20507;-67
2021/07/24 08:35:25;;;;;;;0.57;0.40;;;22.70;99.90;;;;;;4957912;29;20180;-67
2021/07/24 08:37:51;;;;;;;0.80;0.57;;;22.80;1.00;;;;;;4957729;29;20821;-67
2021/07/24 08:40:17;;;;;;;0.67;0.53;;;23.00;1.00;;;;;;4957591;29;20624;-67
2021/07/24 08:42:42;;;;;;;0.50;0.20;;;23.00;99.90;;;;;;4975697;28;20274;-66
2021/07/24 08:45:10;;;;;;;0.50;0.30;;;23.20;1.00;;;;;;4977078;28;20471;-68
2021/07/24 08:47:36;;;;;;;0.80;0.50;;;23.20;8.30;;;;;;4976738;28;20431;-68
2021/07/24 08:50:04;;;;;;;0.60;0.47;;;22.80;99.90;;;;;;4976869;28;20970;-68
2021/07/24 08:52:31;;;;;;;2.20;1.23;;;22.70;99.90;;;;;;4976543;28;20427;-68
2021/07/24 08:54:59;;;;;;;0.50;0.20;;;22.60;99.90;;;;;;4976884;28;20434;-65
2021/07/24 08:57:31;;;;;;;2.50;2.30;;;22.80;1.00;;;;;;4976743;28;20441;-67
2021/07/24 09:00:01;;;;;;;0.60;0.40;;;22.90;1.00;;;;;;4976765;28;20435;-67
2021/07/24 09:02:28;;;;;;;0.70;0.63;;;22.80;1.00;;;;;;4957954;29;20969;-67
2021/07/24 09:04:57;;;;;;;1.07;1.07;;;22.90;1.00;;;;;;4957097;29;20536;-66
2021/07/24 09:07:27;;;;;;;0.60;0.40;;;23.00;1.00;;;;;;4956353;29;20454;-67
2021/07/24 09:09:56;;;;;;;0.60;0.30;;;23.20;1.00;;;;;;4955499;29;20455;-68
2021/07/24 09:12:23;;;;;;;0.50;0.20;;;22.90;1.00;;;;;;4957195;29;20440;-67
2021/07/24 09:14:49;;;;;;;0.90;0.70;;;23.10;1.00;;;;;;4957285;29;20446;-68
2021/07/24 09:17:20;;;;;;;0.50;0.37;;;23.50;1.00;;;;;;4957148;29;20522;-67
2021/07/24 09:19:48;;;;;;;0.50;0.30;;;23.80;99.90;;;;;;4956790;29;20442;-67
2021/07/24 09:22:36;;;;;;;0.50;0.20;;;24.20;99.90;;;;;;4956990;29;20909;-66
2021/07/24 09:25:02;;;;;;;1.63;0.53;;;24.00;99.90;;;;;;4956897;29;20962;-67
2021/07/24 09:27:27;;;;;;;0.70;0.70;;;24.10;99.90;;;;;;4939692;29;20518;-67
2021/07/24 09:29:53;;;;;;;0.50;0.20;;;24.00;99.90;;;;;;4956832;29;20192;-67
2021/07/24 09:32:19;;;;;;;0.60;0.30;;;24.20;99.90;;;;;;4956925;29;20184;-67
2021/07/24 09:34:46;;;;;;;0.60;0.50;;;24.40;99.90;;;;;;4956920;29;20588;-67
2021/07/24 09:37:27;;;;;;;0.60;0.40;;;24.30;99.90;;;;;;4956643;29;20211;-67
2021/07/24 09:40:22;;;;;;;0.97;0.87;;;24.60;99.90;;;;;;4956581;28;20772;-67
2021/07/24 09:42:48;;;;;;;0.50;0.20;;;24.60;99.90;;;;;;4956658;29;20818;-67
2021/07/24 09:45:14;;;;;;;1.10;0.70;;;24.80;14.80;;;;;;4956430;29;20982;-67
2021/07/24 09:47:40;;;;;;;1.50;1.40;;;24.60;14.80;;;;;;4956337;29;20427;-67
2021/07/24 09:50:23;;;;;;;1.57;0.97;;;24.10;97.10;;;;;;4956336;29;20283;-66
2021/07/24 09:52:53;;;;;;;3.33;3.13;;;24.10;43.10;;;;;;4956545;29;20434;-66
2021/07/24 09:55:24;;;;;;;0.70;0.40;;;24.20;93.90;;;;;;4939325;29;20440;-67
2021/07/24 09:57:52;;;;;;;0.50;0.30;;;24.20;9.60;;;;;;4956370;29;20434;-68
2021/07/24 10:00:24;;;;;;;0.60;0.50;;;24.40;11.30;;;;;;4956471;29;20443;-67
2021/07/24 10:03:05;;;;;;;0.67;0.30;;;24.90;1.00;;;;;;4956591;29;20435;-67
2021/07/24 10:05:39;;;;;;;0.50;0.20;;;25.00;1.00;;;;;;4955099;28;20471;-67
2021/07/24 10:08:09;;;;;;;0.50;0.20;;;24.90;1.00;;;;;;4956323;29;20428;-66
2021/07/24 10:10:38;;;;;;;0.50;0.30;;;24.90;1.00;;;;;;4956190;29;20759;-67
2021/07/24 10:13:07;;;;;;;0.50;0.20;;;25.10;1.00;;;;;;4956236;29;20431;-66
2021/07/24 10:15:40;;;;;;;0.87;0.70;;;24.60;1.00;;;;;;4956104;29;20908;-66
2021/07/24 10:18:08;;;;;;;10.83;1.73;;;24.70;1.00;;;;;;4956032;29;20426;-67
2021/07/24 10:20:44;;;;;;;0.50;0.20;;;24.90;1.00;;;;;;4956207;29;20432;-67
2021/07/24 10:23:11;;;;;;;1.57;1.47;;;25.20;1.00;;;;;;4956052;29;20460;-68
2021/07/24 10:25:59;;;;;;;0.50;0.20;;;25.30;1.00;;;;;;4955771;29;20478;-67
2021/07/24 10:28:40;;;;;;;0.50;0.10;;;25.20;1.00;;;;;;4955526;29;20419;-67
2021/07/24 10:31:15;;;;;;;0.73;0.40;;;25.30;1.00;;;;;;4955725;29;20426;-67
2021/07/24 10:33:42;;;;;;;2.03;1.93;;;25.50;1.00;;;;;;4955778;29;20484;-68
2021/07/24 10:36:17;;;;;;;0.50;0.23;;;25.70;1.00;;;;;;4956069;29;20721;-67
2021/07/24 10:38:58;;;;;;;1.13;1.03;;;25.80;1.00;;;;;;4955547;29;20427;-67
2021/07/24 10:41:23;;;;;;;0.50;0.10;;;25.90;1.00;;;;;;4955898;29;20423;-67
2021/07/24 10:44:09;;;;;;;0.50;0.30;;;26.00;1.00;;;;;;4955680;29;20428;-67
2021/07/24 10:46:58;;;;;;;0.70;0.53;;;25.90;1.00;;;;;;4938946;29;20224;-67
2021/07/24 10:49:32;;;;;;;0.50;0.20;;;25.70;1.00;;;;;;4943773;29;20436;-67
2021/07/24 10:51:58;;;;;;;0.70;0.37;;;25.40;1.00;;;;;;4955659;29;20423;-67
2021/07/24 10:54:25;;;;;;;1.03;0.70;;;25.70;1.00;;;;;;4955496;29;20428;-67
2021/07/24 10:56:51;;;;;;;0.50;0.20;;;25.70;1.00;;;;;;4938693;29;20428;-68
2021/07/24 10:59:21;;;;;;;2.10;2.00;;;25.90;1.00;;;;;;4955378;29;20443;-68
2021/07/24 11:01:51;;;;;;;0.50;0.30;;;26.30;1.00;;;;;;4955606;29;20214;-67
2021/07/24 11:04:35;;;;;;;0.50;0.20;;;26.30;1.00;;;;;;4955597;29;20515;-68
2021/07/24 11:07:13;;;;;;;1.57;1.03;;;26.30;1.00;;;;;;4955452;29;20427;-68
2021/07/24 11:09:46;;;;;;;0.60;0.20;;;26.20;1.00;;;;;;4955372;29;20503;-67
2021/07/24 11:12:14;;;;;;;0.50;0.20;;;26.10;1.00;;;;;;4955452;29;20416;-68
2021/07/24 11:14:42;;;;;;;1.00;0.73;;;25.80;1.00;;;;;;4955682;29;20424;-69
2021/07/24 11:17:10;;;;;;;1.13;1.03;;;25.90;1.00;;;;;;4959530;28;20428;-66
2021/07/24 11:19:37;;;;;;;1.03;0.93;;;26.00;1.00;;;;;;4959397;29;20486;-65
2021/07/24 11:22:15;;;;;;;0.50;0.20;;;25.60;1.00;;;;;;4942472;29;20455;-69
2021/07/24 11:24:51;;;;;;;0.50;0.20;;;25.70;1.00;;;;;;4959115;29;20463;-68
2021/07/24 11:27:23;;;;;;;0.50;0.20;;;26.00;1.00;;;;;;4959702;29;20514;-64
2021/07/24 11:29:48;;;;;;;0.60;0.40;;;26.30;1.00;;;;;;4942362;29;20491;-64
2021/07/24 11:32:15;;;;;;;0.60;0.40;;;26.60;1.00;;;;;;4959527;29;20427;-65
2021/07/24 11:34:45;;;;;;;1.90;1.33;;;26.70;1.00;;;;;;4959129;29;20530;-64
2021/07/24 11:37:12;;;;;;;1.03;0.93;;;26.60;1.00;;;;;;4959143;29;20522;-66
2021/07/24 11:39:37;;;;;;;0.50;0.30;;;26.30;1.00;;;;;;4958964;29;20518;-66
2021/07/24 11:42:04;;;;;;;0.93;0.83;;;26.50;1.00;;;;;;4959007;28;20567;-64
2021/07/24 11:44:32;;;;;;;1.37;1.27;;;26.60;1.00;;;;;;4960175;29;20218;-68
2021/07/24 11:47:03;;;;;;;0.60;0.40;;;26.60;1.00;;;;;;4961167;29;20432;-68
2021/07/24 11:49:30;;;;;;;1.33;1.23;;;26.80;1.00;;;;;;4958821;29;20423;-65
2021/07/24 11:51:57;;;;;;;0.60;0.30;;;26.80;1.00;;;;;;4958915;29;20419;-65
2021/07/24 11:54:33;;;;;;;0.50;0.20;;;26.70;1.00;;;;;;4958900;29;20836;-67
2021/07/24 11:57:00;;;;;;;1.73;0.80;;;26.80;1.00;;;;;;4941978;29;20435;-67
2021/07/24 11:59:27;;;;;;;0.50;0.37;;;26.90;1.00;;;;;;4959192;29;20433;-64
2021/07/24 12:01:54;;;;;;;0.60;0.40;;;26.90;1.00;;;;;;4941577;29;20427;-64
2021/07/24 12:04:20;;;;;;;0.80;0.80;;;27.10;1.00;;;;;;4942018;29;20432;-68
2021/07/24 12:06:56;;;;;;;0.50;0.20;;;27.20;1.00;;;;;;4959050;29;20458;-64
2021/07/24 12:09:22;;;;;;;1.67;1.03;;;27.40;1.00;;;;;;4958959;29;20214;-65
2021/07/24 12:12:01;;;;;;;0.80;0.70;;;27.40;1.00;;;;;;4959963;29;20423;-67
2021/07/24 12:14:28;;;;;;;1.47;1.37;;;27.50;1.00;;;;;;4960297;29;20420;-68
2021/07/24 12:17:03;;;;;;;1.50;1.40;;;27.40;1.00;;;;;;4960630;29;20467;-66
2021/07/24 12:19:44;;;;;;;1.43;0.70;;;27.20;1.00;;;;;;4958477;29;20427;-63
2021/07/24 12:22:14;;;;;;;0.50;0.20;;;27.20;1.00;;;;;;4958452;29;20732;-63
2021/07/24 12:24:40;;;;;;;1.33;0.70;;;27.60;1.00;;;;;;4958313;29;20794;-64
2021/07/24 12:27:12;;;;;;;0.50;0.20;;;27.40;1.00;;;;;;4957526;28;20438;-64
2021/07/24 12:29:54;;;;;;;1.43;0.70;;;27.20;1.00;;;;;;4958335;29;20442;-66
2021/07/24 12:32:24;;;;;;;0.80;0.50;;;27.20;1.00;;;;;;4958847;29;20428;-64
2021/07/24 12:34:50;;;;;;;0.50;0.20;;;27.10;1.00;;;;;;4958229;29;20431;-66
2021/07/24 12:37:32;;;;;;;0.60;0.43;;;27.20;1.00;;;;;;4958954;29;20495;-67
2021/07/24 12:40:12;;;;;;;2.77;1.20;;;27.10;1.00;;;;;;4958492;29;20510;-64
2021/07/24 12:42:37;;;;;;;0.50;0.20;;;26.90;1.00;;;;;;4959064;29;20438;-64
2021/07/24 12:45:03;;;;;;;0.73;0.67;;;27.00;1.00;;;;;;4959323;29;20459;-64
2021/07/24 12:47:37;;;;;;;0.50;0.20;;;27.10;1.00;;;;;;4958999;29;20192;-65
2021/07/24 12:50:16;;;;;;;2.47;1.30;;;27.10;1.00;;;;;;4958885;29;20423;-65
2021/07/24 12:52:54;;;;;;;0.50;0.30;;;27.30;1.00;;;;;;4959089;29;20917;-64
2021/07/24 12:55:35;;;;;;;0.50;0.37;;;27.40;1.00;;;;;;4959618;29;20422;-64
2021/07/24 12:58:01;;;;;;;0.90;0.67;;;27.30;1.00;;;;;;4959738;29;20435;-66
2021/07/24 13:00:30;;;;;;;0.50;0.20;;;27.50;1.00;;;;;;4959997;29;20728;-64